Time;durP1;ratioP1;P1;durP2;ratioP2;P2;SDS_P1;SDS_P2;PMS_P1;PMS_P2;Temp;Humidity;BMP_temperature;BMP_pressure;BME280_temperature;BME280_humidity;BME280_pressure;Samples;Min_cycle;Max_cycle;Signal;HPM_P1;HPM_P2
2022/01/16 00:04:24;;;;;;;;;;;;;;;;;;;;;
2022/01/16 00:19:32;;;;;;;81.53;30.10;;;3.20;99.90;;;;;;5034798;28;20079;-87
2022/01/16 00:22:11;;;;;;;72.97;29.23;;;3.20;99.90;;;;;;4985157;28;20142;-87
2022/01/16 00:27:55;;;;;;;;;;;;;;;;;;;;;
2022/01/16 00:52:23;;;;;;;;;;;;;;;;;;;;;
2022/01/16 00:58:43;;;;;;;;;;;;;;;;;;;;;
2022/01/16 01:29:33;;;;;;;;;;;;;;;;;;;;;
2022/01/16 02:00:33;;;;;;;;;;;;;;;;;;;;;
2022/01/16 02:13:45;;;;;;;;;;;;;;;;;;;;;
2022/01/16 02:30:10;;;;;;;;;;;;;;;;;;;;;
2022/01/16 02:35:43;;;;;;;;;;;;;;;;;;;;;
2022/01/16 02:38:55;;;;;;;70.57;28.77;;;2.90;99.90;;;;;;4955616;29;20034;-87
2022/01/16 02:44:59;;;;;;;72.43;27.27;;;2.80;99.90;;;;;;4960566;28;20495;-87
2022/01/16 02:47:48;;;;;;;71.65;27.05;;;2.80;99.90;;;;;;4957798;28;20070;-87
2022/01/16 02:50:41;;;;;;;79.00;29.33;;;2.80;99.90;;;;;;4997733;28;20033;-87
2022/01/16 02:53:22;;;;;;;;;;;;;;;;;;;;;
2022/01/16 02:56:48;;;;;;;;;;;;;;;;;;;;;
2022/01/16 02:59:48;;;;;;;59.55;26.70;;;2.80;99.90;;;;;;5032876;28;20033;-87
2022/01/16 03:02:31;;;;;;;94.38;30.42;;;2.80;99.90;;;;;;5016889;28;20480;-88
2022/01/16 03:06:01;;;;;;;77.82;27.75;;;2.80;99.90;;;;;;5003838;28;20029;-87
2022/01/16 03:09:05;;;;;;;99.88;30.23;;;2.80;99.90;;;;;;5031623;28;20414;-87
2022/01/16 03:22:24;;;;;;;95.32;28.33;;;2.90;99.90;;;;;;4935345;29;20051;-87
2022/01/16 03:35:42;;;;;;;;;;;;;;;;;;;;;
2022/01/16 03:38:30;;;;;;;;;;;;;;;;;;;;;
2022/01/16 03:41:32;;;;;;;;;;;;;;;;;;;;;
2022/01/16 03:44:40;;;;;;;;;;;;;;;;;;;;;
2022/01/16 03:51:07;;;;;;;;;;;;;;;;;;;;;
2022/01/16 04:16:37;;;;;;;;;;;3.00;99.90;;;;;;4935467;29;20035;-88
2022/01/16 04:19:38;;;;;;;;;;;;;;;;;;;;;
2022/01/16 04:35:47;;;;;;;103.32;33.53;;;3.20;99.90;;;;;;4960908;28;20056;-86
2022/01/16 04:38:23;;;;;;;68.25;29.30;;;3.10;99.90;;;;;;5035215;28;20043;-86
2022/01/16 04:46:37;;;;;;;84.22;31.08;;;3.20;99.90;;;;;;5053399;28;20037;-86
2022/01/16 04:49:09;;;;;;;83.28;31.17;;;3.20;99.90;;;;;;5069630;28;20087;-86
2022/01/16 04:51:51;;;;;;;93.40;31.65;;;3.20;99.90;;;;;;5069376;28;20119;-87
2022/01/16 04:54:31;;;;;;;87.32;33.92;;;3.20;99.90;;;;;;5069738;28;20079;-86
2022/01/16 04:58:05;;;;;;;98.45;35.53;;;3.20;99.90;;;;;;5069320;28;20364;-86
2022/01/16 05:00:38;;;;;;;94.65;35.13;;;3.30;99.90;;;;;;5045975;28;20033;-87
2022/01/16 05:06:54;;;;;;;84.43;33.13;;;3.30;99.90;;;;;;5054108;28;20200;-85
2022/01/16 05:26:07;;;;;;;108.93;36.83;;;3.30;99.90;;;;;;4977102;28;20053;-85
2022/01/16 06:11:57;;;;;;;;;;;3.50;99.90;;;;;;4923732;29;20057;-86
2022/01/16 06:14:23;;;;;;;76.35;33.33;;;3.50;99.90;;;;;;4964639;29;19945;-85
2022/01/16 06:16:50;;;;;;;97.72;37.85;;;3.50;99.90;;;;;;4943375;29;20035;-86
2022/01/16 06:19:16;;;;;;;108.78;39.83;;;3.60;99.90;;;;;;5006547;28;20037;-86
2022/01/16 06:21:41;;;;;;;90.38;38.60;;;3.50;99.90;;;;;;5018573;28;20029;-85
2022/01/16 06:24:10;;;;;;;113.00;41.15;;;3.50;99.90;;;;;;5018821;28;20030;-86
2022/01/16 06:26:36;;;;;;;95.18;39.83;;;3.50;99.90;;;;;;5035244;28;20025;-85
2022/01/16 06:29:02;;;;;;;92.75;39.67;;;3.50;99.90;;;;;;5018668;28;20083;-86
2022/01/16 06:31:37;;;;;;;100.78;39.83;;;3.50;99.90;;;;;;5034793;28;20037;-88
2022/01/16 06:34:26;;;;;;;88.47;38.78;;;3.60;99.90;;;;;;5034962;28;20021;-85
2022/01/16 06:37:23;;;;;;;102.70;39.90;;;3.50;99.90;;;;;;5035856;28;20032;-85
2022/01/16 06:39:49;;;;;;;86.93;38.45;;;3.60;99.90;;;;;;5035742;28;20029;-86
2022/01/16 06:46:50;;;;;;;94.90;38.58;;;3.50;99.90;;;;;;4983244;28;20104;-87
2022/01/16 06:49:36;;;;;;;85.57;38.92;;;3.50;99.90;;;;;;4973455;28;20144;-86
2022/01/16 06:52:02;;;;;;;97.65;40.97;;;3.50;99.90;;;;;;5034070;28;20034;-85
2022/01/16 06:54:33;;;;;;;91.25;39.60;;;3.50;99.90;;;;;;5034103;28;20025;-86
2022/01/16 06:57:05;;;;;;;95.47;41.97;;;3.60;99.90;;;;;;5017513;28;20037;-85
2022/01/16 06:59:38;;;;;;;93.93;40.88;;;3.60;99.90;;;;;;5034167;28;20040;-86
2022/01/16 07:09:07;;;;;;;89.95;39.42;;;3.70;99.90;;;;;;4929032;29;20529;-86
2022/01/16 07:11:33;;;;;;;85.93;39.00;;;3.60;99.90;;;;;;4936120;29;20123;-85
2022/01/16 07:13:59;;;;;;;87.85;40.72;;;3.70;99.90;;;;;;4936337;29;20557;-85
2022/01/16 07:16:45;;;;;;;83.70;40.67;;;3.70;99.90;;;;;;4984383;28;20029;-86
2022/01/16 07:20:06;;;;;;;88.07;41.38;;;3.70;99.90;;;;;;5034252;28;20024;-86
2022/01/16 07:35:55;;;;;;;;;;;3.80;99.90;;;;;;4961692;28;20022;-82
2022/01/16 07:38:24;;;;;;;88.32;37.90;;;3.80;99.90;;;;;;5013294;28;19964;-83
2022/01/16 07:44:12;;;;;;;71.40;35.60;;;3.90;99.90;;;;;;5013215;28;20522;-83
2022/01/16 07:46:40;;;;;;;66.72;33.22;;;3.90;99.90;;;;;;5021211;28;20045;-83
2022/01/16 07:49:18;;;;;;;77.18;36.55;;;3.90;99.90;;;;;;5053009;28;20045;-83
2022/01/16 07:51:50;;;;;;;72.43;36.63;;;4.00;99.90;;;;;;5035750;28;20028;-84
2022/01/16 07:54:26;;;;;;;;;;;;;;;;;;;;;
2022/01/16 08:10:29;;;;;;;;;;;4.10;99.90;;;;;;4956239;28;20069;-88
2022/01/16 08:12:54;;;;;;;73.72;35.40;;;4.20;99.90;;;;;;4957259;28;19906;-85
2022/01/16 08:15:20;;;;;;;64.55;33.72;;;4.20;99.90;;;;;;5003153;28;20593;-84
2022/01/16 08:17:49;;;;;;;55.67;30.83;;;4.20;99.90;;;;;;5052624;28;20017;-83
2022/01/16 08:20:15;;;;;;;61.20;34.05;;;4.20;99.90;;;;;;5036324;28;20028;-84
2022/01/16 08:22:48;;;;;;;63.25;34.75;;;4.30;99.90;;;;;;5035960;28;20545;-85
2022/01/16 08:25:15;;;;;;;69.00;34.45;;;4.30;99.90;;;;;;5037457;28;20029;-84
2022/01/16 08:27:44;;;;;;;62.38;32.28;;;4.30;99.90;;;;;;5053169;28;20033;-87
2022/01/16 08:30:13;;;;;;;60.25;32.28;;;4.30;99.90;;;;;;5019948;28;20116;-83
2022/01/16 08:32:43;;;;;;;60.85;31.80;;;4.30;99.90;;;;;;5036971;28;20073;-84
2022/01/16 08:35:13;;;;;;;67.57;35.65;;;4.40;99.90;;;;;;5037028;28;20391;-84
2022/01/16 08:44:11;;;;;;;57.83;28.63;;;4.40;99.90;;;;;;5011223;28;20036;-84
2022/01/16 08:46:42;;;;;;;59.35;30.83;;;4.50;99.90;;;;;;5038934;28;20108;-85
2022/01/16 08:49:10;;;;;;;55.72;31.08;;;4.50;99.90;;;;;;5038867;28;20041;-85
2022/01/16 08:51:38;;;;;;;55.92;31.02;;;4.50;99.90;;;;;;5039321;28;20078;-85
2022/01/16 08:54:07;;;;;;;56.70;31.77;;;4.60;99.90;;;;;;5039285;28;20187;-85
2022/01/16 08:56:42;;;;;;;50.17;29.50;;;4.60;99.90;;;;;;5040275;28;20036;-87
2022/01/16 08:59:27;;;;;;;;;;;;;;;;;;;;;
2022/01/16 09:02:11;;;;;;;55.30;28.42;;;4.70;99.90;;;;;;5057799;28;20025;-85
2022/01/16 09:04:37;;;;;;;54.03;29.48;;;4.70;99.90;;;;;;5039381;28;20029;-87
2022/01/16 09:07:20;;;;;;;47.85;28.23;;;4.70;99.90;;;;;;5039629;28;20047;-85
2022/01/16 09:09:46;;;;;;;54.50;28.27;;;4.80;99.90;;;;;;5023625;28;20025;-86
2022/01/16 09:12:17;;;;;;;50.80;27.80;;;4.80;99.90;;;;;;5040453;28;20036;-87
2022/01/16 09:14:43;;;;;;;49.75;27.33;;;4.80;99.90;;;;;;5056881;28;20045;-86
2022/01/16 09:17:08;;;;;;;50.63;27.40;;;4.80;99.90;;;;;;5039656;28;20029;-86
2022/01/16 09:19:37;;;;;;;52.95;29.20;;;4.90;99.90;;;;;;5039349;28;20021;-86
2022/01/16 09:22:03;;;;;;;46.10;27.52;;;4.90;99.90;;;;;;5023596;28;20482;-86
2022/01/16 09:24:34;;;;;;;48.22;27.55;;;4.90;99.90;;;;;;5040083;28;20032;-85
2022/01/16 09:27:06;;;;;;;52.53;28.60;;;5.00;99.90;;;;;;5038710;28;20116;-88
2022/01/16 09:29:34;;;;;;;55.75;28.67;;;5.00;99.90;;;;;;5039863;28;20035;-85
2022/01/16 09:32:05;;;;;;;55.00;27.92;;;5.00;99.90;;;;;;5023228;28;20039;-85
2022/01/16 09:34:32;;;;;;;51.20;26.67;;;5.10;99.90;;;;;;5039659;28;20467;-86
2022/01/16 09:36:58;;;;;;;47.63;28.52;;;5.10;99.90;;;;;;5022812;28;20051;-86
2022/01/16 09:39:24;;;;;;;49.20;27.88;;;5.10;99.90;;;;;;5039104;28;20558;-86
2022/01/16 09:44:40;;;;;;;53.10;27.73;;;5.20;99.90;;;;;;5056723;28;20040;-86
2022/01/16 09:47:07;;;;;;;51.22;27.38;;;5.20;99.90;;;;;;5038770;28;20474;-86
2022/01/16 09:49:36;;;;;;;56.08;28.27;;;5.20;99.90;;;;;;5056119;28;20036;-87
2022/01/16 09:52:02;;;;;;;51.33;26.55;;;5.20;99.90;;;;;;5055191;28;20078;-86
2022/01/16 09:54:28;;;;;;;47.88;26.70;;;5.30;99.90;;;;;;5039300;28;20029;-86
2022/01/16 09:56:56;;;;;;;57.72;30.33;;;5.30;99.90;;;;;;5056230;28;20032;-86
2022/01/16 09:59:25;;;;;;;56.22;29.40;;;5.40;99.90;;;;;;5039495;28;20043;-85
2022/01/16 10:01:51;;;;;;;56.25;27.75;;;5.40;99.90;;;;;;5039691;28;20021;-88
2022/01/16 10:04:40;;;;;;;59.58;28.95;;;5.40;99.90;;;;;;5057745;28;20052;-88
2022/01/16 10:07:17;;;;;;;62.13;30.73;;;5.50;99.90;;;;;;5058602;28;20025;-89
2022/01/16 10:10:05;;;;;;;62.47;29.92;;;5.50;99.90;;;;;;5057634;28;20109;-86
2022/01/16 10:12:35;;;;;;;59.22;29.92;;;5.50;99.90;;;;;;5042914;28;20021;-86
2022/01/16 10:15:22;;;;;;;60.17;28.67;;;5.50;99.90;;;;;;5046775;28;20101;-86
2022/01/16 10:17:57;;;;;;;63.45;30.88;;;5.50;99.90;;;;;;5059344;28;20045;-86
2022/01/16 10:20:29;;;;;;;70.95;33.75;;;5.60;99.90;;;;;;5040652;28;20044;-86
2022/01/16 10:23:01;;;;;;;63.10;30.65;;;5.60;99.90;;;;;;5054449;28;20025;-85
2022/01/16 10:25:45;;;;;;;;;;;5.60;99.90;;;;;;5054337;28;20029;-86
2022/01/16 10:28:35;;;;;;;60.30;28.90;;;5.60;99.90;;;;;;5054846;28;19905;-84
2022/01/16 10:31:27;;;;;;;69.47;33.65;;;5.60;99.90;;;;;;5053180;28;20429;-84
2022/01/16 10:34:23;;;;;;;64.65;33.47;;;5.60;99.90;;;;;;5052688;28;20021;-84
2022/01/16 10:43:39;;;;;;;81.00;36.63;;;5.60;99.90;;;;;;4993721;28;20082;-87
2022/01/16 10:49:29;;;;;;;;;;;5.60;99.90;;;;;;5001346;28;20436;-87
2022/01/16 10:52:07;;;;;;;84.60;38.38;;;5.60;99.90;;;;;;5013788;28;19909;-86
2022/01/16 10:54:40;;;;;;;86.88;39.42;;;5.60;99.90;;;;;;4997635;28;20152;-86
2022/01/16 10:57:35;;;;;;;79.22;37.38;;;5.60;99.90;;;;;;4997192;28;20037;-86
2022/01/16 11:00:21;;;;;;;73.40;35.38;;;5.70;99.90;;;;;;5013687;28;20065;-85
2022/01/16 11:02:54;;;;;;;81.70;38.88;;;5.70;99.90;;;;;;4999785;28;20030;-87
2022/01/16 11:05:22;;;;;;;83.25;39.88;;;5.70;99.90;;;;;;5055817;28;20029;-87
2022/01/16 11:08:13;;;;;;;;;;;;;;;;;;;;;
2022/01/16 11:18:08;;;;;;;;;;;5.80;99.90;;;;;;5014429;28;20037;-86
2022/01/16 11:27:07;;;;;;;89.30;39.05;;;5.70;99.90;;;;;;4936432;29;20030;-86
2022/01/16 11:36:55;;;;;;;94.18;38.72;;;5.70;99.90;;;;;;4891755;29;20024;-86
2022/01/16 11:39:42;;;;;;;91.78;37.35;;;5.80;99.90;;;;;;4919973;29;20024;-86
2022/01/16 11:42:37;;;;;;;90.80;38.38;;;5.80;99.90;;;;;;4920005;29;20055;-86
2022/01/16 11:45:38;;;;;;;94.78;38.83;;;5.80;99.90;;;;;;4967756;28;20076;-86
2022/01/16 11:48:55;;;;;;;89.97;37.22;;;5.80;99.90;;;;;;4977529;28;20022;-85
2022/01/16 11:57:58;;;;;;;;;;;5.80;99.90;;;;;;4994632;28;20013;-86
2022/01/16 12:00:40;;;;;;;88.95;36.47;;;5.80;99.90;;;;;;4993115;28;19937;-93
2022/01/16 12:03:32;;;;;;;109.03;39.45;;;5.90;99.90;;;;;;4993495;28;20031;-85
2022/01/16 12:06:33;;;;;;;103.78;39.33;;;5.80;99.90;;;;;;5052287;28;20340;-85
2022/01/16 12:09:01;;;;;;;90.72;36.95;;;5.80;99.90;;;;;;5036103;28;20032;-86
2022/01/16 12:11:38;;;;;;;101.95;38.55;;;5.90;99.90;;;;;;5036899;28;20036;-85
2022/01/16 12:14:06;;;;;;;100.32;39.92;;;5.90;99.90;;;;;;5019784;28;20029;-85
2022/01/16 12:30:50;;;;;;;92.05;37.78;;;5.90;99.90;;;;;;5058415;28;20083;-87
2022/01/16 12:33:16;;;;;;;;;;;6.00;99.90;;;;;;5054277;28;20086;-86
2022/01/16 12:35:45;;;;;;;102.55;37.17;;;6.00;99.90;;;;;;5057335;28;19904;-85
2022/01/16 12:38:16;;;;;;;101.90;38.47;;;6.00;99.90;;;;;;5040654;28;20455;-86
2022/01/16 12:40:44;;;;;;;92.28;37.00;;;6.00;99.90;;;;;;5056794;28;20036;-86
2022/01/16 12:43:16;;;;;;;101.10;38.60;;;6.00;99.90;;;;;;5056432;28;20025;-87
2022/01/16 12:45:48;;;;;;;103.95;39.67;;;6.10;99.90;;;;;;5040147;28;20029;-85
2022/01/16 12:48:16;;;;;;;105.25;39.90;;;6.10;99.90;;;;;;5022999;28;20064;-86
2022/01/16 12:50:42;;;;;;;87.50;36.22;;;6.20;99.90;;;;;;5023019;28;20057;-85
2022/01/16 12:53:08;;;;;;;99.57;39.25;;;6.20;99.90;;;;;;5039363;28;20450;-85
2022/01/16 12:55:35;;;;;;;111.63;39.28;;;6.30;99.90;;;;;;5040099;28;20386;-85
2022/01/16 12:58:33;;;;;;;98.85;37.28;;;6.30;99.90;;;;;;5039665;28;20029;-84
2022/01/16 13:01:04;;;;;;;102.88;40.83;;;6.30;99.90;;;;;;5012559;28;20075;-84
2022/01/16 13:03:33;;;;;;;98.50;38.67;;;6.40;99.90;;;;;;5057495;28;20087;-84
2022/01/16 13:06:38;;;;;;;98.13;38.85;;;6.40;99.90;;;;;;5039447;28;20410;-83
2022/01/16 13:09:09;;;;;;;99.93;38.42;;;6.40;99.90;;;;;;5055374;28;20111;-83
2022/01/16 13:12:00;;;;;;;93.15;38.03;;;6.50;99.90;;;;;;5057600;28;20024;-83
2022/01/16 13:31:34;;;;;;;102.15;42.17;;;6.60;99.90;;;;;;5054290;28;20028;-84
2022/01/16 13:41:54;;;;;;;;;;;;;;;;;;;;;
2022/01/16 13:48:29;;;;;;;90.53;38.00;;;6.70;99.90;;;;;;5015353;28;20033;-84
2022/01/16 13:54:32;;;;;;;87.25;37.28;;;6.80;99.90;;;;;;4993828;28;20053;-85
2022/01/16 13:57:02;;;;;;;94.50;40.60;;;6.70;99.90;;;;;;4979676;28;20038;-88
2022/01/16 13:59:29;;;;;;;96.35;40.95;;;6.80;99.90;;;;;;5023150;28;20128;-85
2022/01/16 14:01:56;;;;;;;84.68;36.85;;;6.80;99.90;;;;;;5036402;28;20189;-84
2022/01/16 14:04:24;;;;;;;81.03;37.20;;;6.80;99.90;;;;;;5034744;28;20034;-85
2022/01/16 14:07:46;;;;;;;;;;;;;;;;;;;;;
2022/01/16 14:13:29;;;;;;;82.63;37.75;;;6.80;99.90;;;;;;4975750;28;20087;-86
2022/01/16 14:16:41;;;;;;;76.05;34.67;;;6.80;99.90;;;;;;5034904;28;20131;-85
2022/01/16 14:22:45;;;;;;;72.75;34.90;;;6.80;99.90;;;;;;5036939;28;20120;-85
2022/01/16 14:25:11;;;;;;;78.68;35.05;;;6.70;99.90;;;;;;5000402;28;20052;-85
2022/01/16 14:27:37;;;;;;;73.15;33.17;;;6.80;99.90;;;;;;5018973;28;20029;-89
2022/01/16 14:30:12;;;;;;;79.57;35.17;;;6.80;99.90;;;;;;5034960;28;20021;-86
2022/01/16 14:32:41;;;;;;;66.05;33.28;;;6.80;99.90;;;;;;5034899;28;20028;-86
2022/01/16 14:35:08;;;;;;;69.30;34.35;;;6.80;99.90;;;;;;5035598;28;20028;-86
2022/01/16 14:37:33;;;;;;;78.43;37.25;;;6.90;99.90;;;;;;5017158;28;20579;-86
2022/01/16 14:40:02;;;;;;;70.43;33.33;;;6.90;99.90;;;;;;5033400;28;20025;-87
2022/01/16 14:42:37;;;;;;;70.43;34.45;;;6.80;99.90;;;;;;5033549;28;20026;-87
2022/01/16 14:45:05;;;;;;;67.88;32.58;;;6.80;99.90;;;;;;5033988;28;20033;-87
2022/01/16 14:47:51;;;;;;;62.92;30.70;;;6.90;99.90;;;;;;5035571;28;20025;-86
2022/01/16 14:50:19;;;;;;;63.55;31.25;;;6.80;99.90;;;;;;5035403;28;20021;-87
2022/01/16 14:52:52;;;;;;;59.80;31.92;;;6.80;99.90;;;;;;5002687;28;20022;-86
2022/01/16 14:55:18;;;;;;;57.90;29.88;;;6.80;99.90;;;;;;5051823;28;20498;-86
2022/01/16 14:57:44;;;;;;;56.28;29.13;;;6.90;99.90;;;;;;5038423;28;20075;-86
2022/01/16 15:00:13;;;;;;;55.95;30.65;;;6.90;99.90;;;;;;5055116;28;20020;-86
2022/01/16 15:02:42;;;;;;;55.38;28.80;;;6.90;99.90;;;;;;5021615;28;20041;-86
2022/01/16 15:05:15;;;;;;;56.35;28.55;;;6.90;99.90;;;;;;5053804;28;20029;-85
2022/01/16 15:07:43;;;;;;;54.90;28.50;;;6.90;99.90;;;;;;5054272;28;20021;-85
2022/01/16 15:10:11;;;;;;;54.65;28.38;;;6.90;99.90;;;;;;5037677;28;20033;-86
2022/01/16 15:12:50;;;;;;;52.25;28.02;;;6.90;99.90;;;;;;5054594;28;20195;-86
2022/01/16 15:15:17;;;;;;;51.47;28.17;;;6.90;99.90;;;;;;5054270;28;20036;-86
2022/01/16 15:17:47;;;;;;;48.10;26.58;;;6.90;99.90;;;;;;5053525;28;20079;-87
2022/01/16 15:20:28;;;;;;;52.40;28.63;;;6.90;99.90;;;;;;5037288;28;20067;-86
2022/01/16 15:23:04;;;;;;;53.10;29.20;;;6.90;99.90;;;;;;5037022;28;20044;-87
2022/01/16 15:25:30;;;;;;;47.20;27.90;;;6.90;99.90;;;;;;5021356;28;20550;-87
2022/01/16 15:27:58;;;;;;;51.10;29.23;;;6.90;99.90;;;;;;5037748;28;20048;-87
2022/01/16 15:30:39;;;;;;;54.03;28.40;;;6.90;99.90;;;;;;5040154;28;20039;-86
2022/01/16 15:46:55;;;;;;;55.58;29.83;;;6.90;99.90;;;;;;4908651;28;20530;-84
2022/01/16 15:49:32;;;;;;;54.45;29.90;;;6.90;99.90;;;;;;4973413;28;20031;-86
2022/01/16 15:56:40;;;;;;;57.08;30.75;;;6.90;99.90;;;;;;4893814;29;20059;-89
2022/01/16 16:20:12;;;;;;;69.35;32.88;;;6.80;99.90;;;;;;4976936;28;20524;-86
2022/01/16 16:26:17;;;;;;;;;;;;;;;;;;;;;
2022/01/16 16:29:11;;;;;;;63.03;32.47;;;6.80;99.90;;;;;;5033685;28;20032;-87
2022/01/16 16:31:45;;;;;;;65.85;32.67;;;6.80;99.90;;;;;;5004788;28;20034;-86
2022/01/16 16:34:50;;;;;;;;;;;;;;;;;;;;;
2022/01/16 16:37:36;;;;;;;68.57;34.95;;;6.90;99.90;;;;;;5033411;28;20040;-88
2022/01/16 16:40:44;;;;;;;;;;;;;;;;;;;;;
2022/01/16 16:43:39;;;;;;;81.82;35.05;;;6.90;99.90;;;;;;5033664;28;20060;-84
2022/01/16 17:00:01;;;;;;;76.53;33.08;;;6.90;99.90;;;;;;4913925;29;20102;-84
2022/01/16 17:09:18;;;;;;;98.47;39.08;;;6.90;99.90;;;;;;4940532;28;20074;-87
2022/01/16 17:11:46;;;;;;;78.38;38.08;;;7.00;99.90;;;;;;4976601;28;20034;-89
2022/01/16 17:27:24;;;;;;;94.25;40.00;;;6.90;99.90;;;;;;5017847;28;20073;-85
2022/01/16 17:29:50;;;;;;;96.45;37.63;;;6.90;99.90;;;;;;5050538;28;20013;-87
2022/01/16 17:32:17;;;;;;;89.57;39.72;;;7.00;99.90;;;;;;5037842;28;20025;-86
2022/01/16 17:34:46;;;;;;;97.72;41.63;;;7.00;99.90;;;;;;5022028;28;20032;-86
2022/01/16 17:37:12;;;;;;;98.00;39.65;;;7.00;99.90;;;;;;5023012;28;20021;-85
2022/01/16 17:39:41;;;;;;;100.90;40.53;;;7.00;99.90;;;;;;5054910;28;20016;-87
2022/01/16 17:42:25;;;;;;;105.80;41.20;;;7.10;99.90;;;;;;5038290;28;20029;-84
2022/01/16 17:44:51;;;;;;;101.20;41.72;;;7.10;99.90;;;;;;5037740;28;20074;-84
2022/01/16 17:47:22;;;;;;;91.57;40.30;;;7.10;99.90;;;;;;5038028;28;20115;-85
2022/01/16 17:49:56;;;;;;;104.40;44.35;;;7.20;99.90;;;;;;5054049;28;20356;-83
2022/01/16 17:52:25;;;;;;;98.75;40.15;;;7.10;99.90;;;;;;5022173;28;20343;-84
2022/01/16 17:55:02;;;;;;;94.20;42.92;;;7.10;99.90;;;;;;5055256;28;20470;-85
2022/01/16 17:57:28;;;;;;;104.00;44.88;;;7.20;99.90;;;;;;5023497;28;20037;-84
2022/01/16 18:00:12;;;;;;;98.07;41.90;;;7.20;99.90;;;;;;5054473;28;20179;-84
2022/01/16 18:02:38;;;;;;;103.22;40.80;;;7.20;99.90;;;;;;5054497;28;20070;-86
2022/01/16 18:05:08;;;;;;;86.50;39.25;;;7.20;99.90;;;;;;5054790;28;20405;-86
2022/01/16 18:07:49;;;;;;;93.85;38.88;;;7.20;99.90;;;;;;5038196;28;20017;-84
2022/01/16 18:10:15;;;;;;;93.38;40.30;;;7.20;99.90;;;;;;5054211;28;20080;-85
2022/01/16 18:12:42;;;;;;;95.82;41.22;;;7.20;99.90;;;;;;5037662;28;20450;-83
2022/01/16 18:15:13;;;;;;;97.35;41.03;;;7.20;99.90;;;;;;5037106;28;20032;-84
2022/01/16 18:17:39;;;;;;;78.75;38.03;;;7.20;99.90;;;;;;5036525;28;20187;-84
2022/01/16 18:20:16;;;;;;;86.00;37.53;;;7.20;99.90;;;;;;5053845;28;20021;-85
2022/01/16 18:22:51;;;;;;;94.97;40.50;;;7.30;99.90;;;;;;5022270;28;20524;-84
2022/01/16 18:25:20;;;;;;;91.35;39.95;;;7.30;99.90;;;;;;5037286;28;20039;-84
2022/01/16 18:27:46;;;;;;;93.22;40.58;;;7.30;99.90;;;;;;5037530;28;20017;-83
2022/01/16 18:30:35;;;;;;;81.43;38.60;;;7.20;99.90;;;;;;5036518;28;20079;-87
2022/01/16 18:33:01;;;;;;;91.70;39.78;;;7.30;99.90;;;;;;5041395;28;20367;-86
2022/01/16 18:43:07;;;;;;;;;;;;;;;;;;;;;
2022/01/16 19:02:55;;;;;;;81.10;38.72;;;7.20;99.90;;;;;;4965025;28;20066;-85
2022/01/16 19:05:23;;;;;;;93.22;39.63;;;7.20;99.90;;;;;;4959042;28;20039;-85
2022/01/16 19:49:55;;;;;;;76.10;35.70;;;7.20;99.90;;;;;;4864902;29;20049;-85
2022/01/16 19:52:26;;;;;;;75.30;34.35;;;7.20;99.90;;;;;;4865879;29;20500;-85
2022/01/16 19:55:04;;;;;;;74.30;34.42;;;7.20;99.90;;;;;;4880791;29;20064;-85
2022/01/16 19:57:35;;;;;;;74.68;34.35;;;7.30;99.90;;;;;;4865646;29;20076;-86
2022/01/16 20:07:18;;;;;;;69.53;32.80;;;7.20;99.90;;;;;;4934240;29;20124;-85
2022/01/16 20:10:29;;;;;;;63.45;32.05;;;7.20;99.90;;;;;;4964851;28;20048;-84
2022/01/16 20:27:03;;;;;;;67.85;33.60;;;7.30;99.90;;;;;;4902800;29;20038;-84
2022/01/16 20:29:37;;;;;;;63.50;32.42;;;7.30;99.90;;;;;;4956086;28;20386;-86
2022/01/16 20:32:23;;;;;;;74.60;36.97;;;7.30;99.90;;;;;;5015662;28;20021;-86
2022/01/16 20:34:52;;;;;;;80.97;37.65;;;7.40;99.90;;;;;;5031514;28;20049;-85
2022/01/16 20:37:20;;;;;;;63.10;30.08;;;7.40;99.90;;;;;;4999328;28;20029;-85
2022/01/16 20:39:57;;;;;;;76.55;34.08;;;7.40;99.90;;;;;;5033457;28;20044;-89
2022/01/16 20:42:23;;;;;;;66.82;31.05;;;7.40;99.90;;;;;;5036973;28;20032;-88
2022/01/16 20:44:49;;;;;;;67.00;33.75;;;7.40;99.90;;;;;;5036463;28;20041;-86
2022/01/16 20:47:15;;;;;;;60.10;31.38;;;7.40;99.90;;;;;;5019150;28;20056;-86
2022/01/16 20:49:41;;;;;;;63.58;30.13;;;7.40;99.90;;;;;;5036428;28;20102;-85
2022/01/16 20:52:07;;;;;;;60.00;28.33;;;7.40;99.90;;;;;;5019800;28;20036;-84
2022/01/16 20:54:33;;;;;;;49.15;27.50;;;7.50;99.90;;;;;;5020001;28;20017;-85
2022/01/16 20:57:04;;;;;;;53.90;27.92;;;7.50;99.90;;;;;;5019725;28;20026;-85
2022/01/16 20:59:45;;;;;;;47.85;26.90;;;7.50;99.90;;;;;;5019903;28;20045;-84
2022/01/16 21:02:13;;;;;;;51.70;28.42;;;7.50;99.90;;;;;;5035632;28;20036;-84
2022/01/16 21:04:41;;;;;;;41.58;24.13;;;7.50;99.90;;;;;;5019508;28;20116;-86
2022/01/16 21:07:09;;;;;;;43.78;23.40;;;7.50;99.90;;;;;;5049546;28;20049;-85
2022/01/16 21:09:38;;;;;;;46.90;25.67;;;7.50;99.90;;;;;;5039475;28;20032;-84
2022/01/16 21:12:08;;;;;;;45.45;23.98;;;7.50;99.90;;;;;;5039887;28;20079;-83
2022/01/16 21:14:57;;;;;;;41.33;22.65;;;7.50;99.90;;;;;;5039672;28;20024;-84
2022/01/16 21:17:56;;;;;;;41.75;23.20;;;7.50;99.90;;;;;;5038800;28;20533;-84
2022/01/16 21:20:25;;;;;;;41.83;22.25;;;7.60;99.90;;;;;;5030842;28;20076;-84
2022/01/16 21:22:53;;;;;;;43.90;23.92;;;7.60;99.90;;;;;;5056810;28;20108;-84
2022/01/16 21:25:29;;;;;;;44.95;22.58;;;7.60;99.90;;;;;;5072041;28;20017;-85
2022/01/16 21:27:58;;;;;;;45.20;25.23;;;7.60;99.90;;;;;;5039470;28;20074;-85
2022/01/16 21:30:33;;;;;;;43.30;23.73;;;7.60;99.90;;;;;;5056987;28;20017;-85
2022/01/16 21:39:49;;;;;;;44.92;24.48;;;7.60;99.90;;;;;;5014607;28;20080;-84
2022/01/16 21:42:33;;;;;;;46.25;23.17;;;7.60;99.90;;;;;;5072010;28;20060;-89
2022/01/16 21:45:12;;;;;;;46.47;23.80;;;7.60;99.90;;;;;;5071525;28;20016;-90
2022/01/16 21:51:09;;;;;;;;;;;;;;;;;;;;;
2022/01/16 22:12:19;;;;;;;;;;;;;;;;;;;;;
2022/01/16 22:25:35;;;;;;;;;;;7.70;99.90;;;;;;4958337;29;20030;-86
2022/01/16 22:32:04;;;;;;;38.58;19.55;;;7.70;99.90;;;;;;4955513;29;20116;-86
2022/01/16 22:35:10;;;;;;;40.33;19.25;;;7.70;99.90;;;;;;4953139;29;20037;-85
2022/01/16 22:48:31;;;;;;;;;;;;;;;;;;;;;
2022/01/16 22:51:06;;;;;;;39.72;16.35;;;7.70;99.90;;;;;;4949755;28;20064;-86
2022/01/16 23:01:02;;;;;;;34.03;12.93;;;7.70;99.90;;;;;;4968187;28;20061;-86
2022/01/16 23:03:57;;;;;;;30.63;13.60;;;7.80;99.90;;;;;;4954335;28;20039;-86
2022/01/16 23:06:42;;;;;;;;;;;;;;;;;;;;;
2022/01/16 23:09:30;;;;;;;;;;;;;;;;;;;;;
2022/01/16 23:13:05;;;;;;;28.25;12.02;;;7.80;99.90;;;;;;5003874;28;20041;-86
2022/01/16 23:16:03;;;;;;;26.17;12.18;;;7.80;99.90;;;;;;5026143;28;20033;-86
2022/01/16 23:18:52;;;;;;;24.55;11.48;;;7.80;99.90;;;;;;5017444;28;20394;-86
2022/01/16 23:21:23;;;;;;;30.20;11.98;;;7.80;99.90;;;;;;4999414;28;20042;-86
2022/01/16 23:24:07;;;;;;;37.42;12.55;;;7.80;99.90;;;;;;5016550;28;20041;-87
2022/01/16 23:26:43;;;;;;;27.85;12.40;;;7.80;99.90;;;;;;5033279;28;20029;-86
2022/01/16 23:29:29;;;;;;;;;;;;;;;;;;;;;
2022/01/16 23:32:50;;;;;;;;;;;;;;;;;;;;;
2022/01/16 23:39:00;;;;;;;30.70;12.07;;;7.80;99.90;;;;;;5034647;28;20040;-86
2022/01/16 23:41:33;;;;;;;32.00;14.43;;;7.80;99.90;;;;;;5033583;28;20029;-86
2022/01/16 23:44:29;;;;;;;;;;;;;;;;;;;;;
2022/01/16 23:50:16;;;;;;;33.90;14.98;;;7.80;99.90;;;;;;5034158;28;20044;-86
2022/01/16 23:53:02;;;;;;;;;;;;;;;;;;;;;
2022/01/16 23:55:42;;;;;;;35.45;16.35;;;7.80;99.90;;;;;;5017210;28;20245;-86
